Hunt Field Lander US
ICAO: KLND
IATA: LND
Category: Medium
Scheduled Services: No

Elevation: 5586 ft
TransAlt. 18000 ft.

Airport Communications:
ASOS:118.15
CTAF/UNICOM:122.8

KLND Zoom In..

Runways:

(A) RW 03 length 5007 ft width 100 ft
---- / hdg 36

(B) RW 21 length 5007 ft width 100 ft
---- / hdg 216

Location; KLND
Day. 29 / Time. 18.53 Zulu
* Altimeter: 30.40
* Temperature: 02° c. 35.6°f.
* Wind from: 000° Speed 00 kn.
Dewpoint: -11° c.
Visibility: 10 Statute Miles.
Clouds: Clear (automated report).

KLND 291853Z AUTO 00000KT 10SM CLR 02/M11 A3040 RMK AO2 SLP306 T00221111

Going to: --> -->


Wind - Calm.

 
 
jpsmedia worldairports.se 2020   terms of use